sensor_id;sensor_type;location;lat;lon;timestamp;pressure;altitude;pressure_sealevel;temperature;humidity
17309;BME280;8772;42.804;23.426;2022-09-29T00:00:44;93772.03;;;18.20;100.00
17309;BME280;8772;42.804;23.426;2022-09-29T00:03:13;93774.06;;;18.25;98.32
17309;BME280;8772;42.804;23.426;2022-09-29T00:05:46;93773.31;;;18.25;97.38
17309;BME280;8772;42.804;23.426;2022-09-29T00:08:14;93772.56;;;18.24;98.90
17309;BME280;8772;42.804;23.426;2022-09-29T00:10:41;93769.84;;;18.24;99.08
17309;BME280;8772;42.804;23.426;2022-09-29T00:13:08;93775.97;;;18.19;98.24
17309;BME280;8772;42.804;23.426;2022-09-29T00:15:35;93764.63;;;18.15;96.20
17309;BME280;8772;42.804;23.426;2022-09-29T00:18:03;93773.53;;;18.21;98.36
17309;BME280;8772;42.804;23.426;2022-09-29T00:20:30;93768.59;;;18.20;98.09
17309;BME280;8772;42.804;23.426;2022-09-29T00:22:57;93774.50;;;18.18;98.19
17309;BME280;8772;42.804;23.426;2022-09-29T00:25:25;93769.59;;;18.22;98.08
17309;BME280;8772;42.804;23.426;2022-09-29T00:27:52;93767.44;;;18.26;99.00
17309;BME280;8772;42.804;23.426;2022-09-29T00:30:19;93768.31;;;18.18;98.56
17309;BME280;8772;42.804;23.426;2022-09-29T00:32:46;93763.41;;;18.16;98.39
17309;BME280;8772;42.804;23.426;2022-09-29T00:35:12;93769.28;;;18.15;96.86
17309;BME280;8772;42.804;23.426;2022-09-29T00:37:42;93769.06;;;18.18;96.05
17309;BME280;8772;42.804;23.426;2022-09-29T00:40:09;93772.31;;;18.22;98.49
17309;BME280;8772;42.804;23.426;2022-09-29T00:42:38;93774.28;;;18.22;97.92
17309;BME280;8772;42.804;23.426;2022-09-29T00:45:17;93777.66;;;18.17;100.00
17309;BME280;8772;42.804;23.426;2022-09-29T00:47:48;93773.00;;;18.17;100.00
17309;BME280;8772;42.804;23.426;2022-09-29T00:50:21;93775.25;;;17.93;100.00
17309;BME280;8772;42.804;23.426;2022-09-29T00:52:51;93772.44;;;17.63;100.00
17309;BME280;8772;42.804;23.426;2022-09-29T00:55:24;93769.34;;;17.70;100.00
17309;BME280;8772;42.804;23.426;2022-09-29T00:57:55;93771.50;;;17.66;100.00
17309;BME280;8772;42.804;23.426;2022-09-29T01:00:24;93777.00;;;16.97;100.00
17309;BME280;8772;42.804;23.426;2022-09-29T01:02:54;93769.28;;;16.70;100.00
17309;BME280;8772;42.804;23.426;2022-09-29T01:08:48;93771.16;;;16.64;100.00
17309;BME280;8772;42.804;23.426;2022-09-29T01:11:19;93781.56;;;16.56;100.00
17309;BME280;8772;42.804;23.426;2022-09-29T01:13:48;93772.47;;;16.25;100.00
17309;BME280;8772;42.804;23.426;2022-09-29T01:16:16;93778.41;;;16.00;100.00
17309;BME280;8772;42.804;23.426;2022-09-29T01:18:43;93766.72;;;16.03;100.00
17309;BME280;8772;42.804;23.426;2022-09-29T01:21:17;93766.63;;;15.97;100.00
17309;BME280;8772;42.804;23.426;2022-09-29T01:24:28;93756.47;;;15.92;100.00
17309;BME280;8772;42.804;23.426;2022-09-29T01:27:18;93765.97;;;15.73;100.00
17309;BME280;8772;42.804;23.426;2022-09-29T01:30:13;93771.25;;;15.68;100.00
17309;BME280;8772;42.804;23.426;2022-09-29T01:32:55;93772.81;;;15.60;100.00
17309;BME280;8772;42.804;23.426;2022-09-29T01:35:29;93772.31;;;15.47;100.00
17309;BME280;8772;42.804;23.426;2022-09-29T01:38:11;93769.88;;;15.35;100.00
17309;BME280;8772;42.804;23.426;2022-09-29T01:40:47;93765.06;;;15.15;100.00
17309;BME280;8772;42.804;23.426;2022-09-29T01:43:17;93777.66;;;15.09;100.00
17309;BME280;8772;42.804;23.426;2022-09-29T01:45:49;93772.66;;;14.93;100.00
17309;BME280;8772;42.804;23.426;2022-09-29T01:48:21;93773.38;;;14.70;100.00
17309;BME280;8772;42.804;23.426;2022-09-29T01:50:53;93778.19;;;14.66;100.00
17309;BME280;8772;42.804;23.426;2022-09-29T01:53:25;93788.22;;;14.66;100.00
17309;BME280;8772;42.804;23.426;2022-09-29T01:55:59;93792.09;;;14.65;100.00
17309;BME280;8772;42.804;23.426;2022-09-29T01:58:32;93788.56;;;14.59;100.00
17309;BME280;8772;42.804;23.426;2022-09-29T02:01:04;93796.78;;;14.55;100.00
17309;BME280;8772;42.804;23.426;2022-09-29T02:03:35;93791.13;;;14.53;100.00
17309;BME280;8772;42.804;23.426;2022-09-29T02:06:08;93792.38;;;14.34;100.00
17309;BME280;8772;42.804;23.426;2022-09-29T02:08:38;93788.94;;;14.34;100.00
17309;BME280;8772;42.804;23.426;2022-09-29T02:11:08;93788.97;;;14.25;100.00
17309;BME280;8772;42.804;23.426;2022-09-29T02:13:39;93789.91;;;13.95;100.00
17309;BME280;8772;42.804;23.426;2022-09-29T02:16:08;93802.59;;;14.03;100.00
17309;BME280;8772;42.804;23.426;2022-09-29T02:18:43;93800.22;;;13.87;100.00
17309;BME280;8772;42.804;23.426;2022-09-29T02:21:14;93813.38;;;13.85;100.00
17309;BME280;8772;42.804;23.426;2022-09-29T02:23:41;93791.13;;;13.85;100.00
17309;BME280;8772;42.804;23.426;2022-09-29T02:26:08;93803.81;;;13.84;100.00
17309;BME280;8772;42.804;23.426;2022-09-29T02:28:36;93802.03;;;13.81;100.00
17309;BME280;8772;42.804;23.426;2022-09-29T02:31:04;93798.16;;;13.82;100.00
17309;BME280;8772;42.804;23.426;2022-09-29T02:33:32;93802.94;;;13.78;100.00
17309;BME280;8772;42.804;23.426;2022-09-29T02:36:11;93808.31;;;13.78;100.00
17309;BME280;8772;42.804;23.426;2022-09-29T02:38:52;93805.78;;;13.84;100.00
17309;BME280;8772;42.804;23.426;2022-09-29T02:41:30;93806.22;;;13.82;100.00
17309;BME280;8772;42.804;23.426;2022-09-29T02:44:15;93808.91;;;13.82;100.00
17309;BME280;8772;42.804;23.426;2022-09-29T02:46:59;93804.88;;;13.69;100.00
17309;BME280;8772;42.804;23.426;2022-09-29T02:49:46;93797.84;;;13.71;100.00
17309;BME280;8772;42.804;23.426;2022-09-29T02:52:24;93800.41;;;13.66;100.00
17309;BME280;8772;42.804;23.426;2022-09-29T02:54:59;93801.44;;;13.68;100.00
17309;BME280;8772;42.804;23.426;2022-09-29T02:57:36;93777.88;;;13.45;100.00
17309;BME280;8772;42.804;23.426;2022-09-29T03:00:11;93778.78;;;13.33;100.00
17309;BME280;8772;42.804;23.426;2022-09-29T03:02:41;93779.97;;;13.15;100.00
17309;BME280;8772;42.804;23.426;2022-09-29T03:05:09;93799.97;;;13.31;100.00
17309;BME280;8772;42.804;23.426;2022-09-29T03:07:39;93801.75;;;13.34;100.00
17309;BME280;8772;42.804;23.426;2022-09-29T03:10:07;93786.69;;;13.28;100.00
17309;BME280;8772;42.804;23.426;2022-09-29T03:12:35;93789.94;;;13.32;100.00
17309;BME280;8772;42.804;23.426;2022-09-29T03:15:03;93785.00;;;13.13;100.00
17309;BME280;8772;42.804;23.426;2022-09-29T03:17:31;93786.84;;;13.16;100.00
17309;BME280;8772;42.804;23.426;2022-09-29T03:19:58;93795.47;;;13.11;100.00
17309;BME280;8772;42.804;23.426;2022-09-29T03:22:25;93788.75;;;12.97;100.00
17309;BME280;8772;42.804;23.426;2022-09-29T03:24:53;93798.38;;;12.86;100.00
17309;BME280;8772;42.804;23.426;2022-09-29T03:27:20;93808.50;;;12.82;100.00
17309;BME280;8772;42.804;23.426;2022-09-29T03:29:47;93806.38;;;12.68;100.00
17309;BME280;8772;42.804;23.426;2022-09-29T03:32:15;93805.53;;;12.80;100.00
17309;BME280;8772;42.804;23.426;2022-09-29T03:34:41;93806.38;;;12.77;100.00
17309;BME280;8772;42.804;23.426;2022-09-29T03:37:08;93813.22;;;12.69;100.00
17309;BME280;8772;42.804;23.426;2022-09-29T03:39:35;93816.25;;;12.80;100.00
17309;BME280;8772;42.804;23.426;2022-09-29T03:42:04;93832.81;;;12.87;100.00
17309;BME280;8772;42.804;23.426;2022-09-29T03:44:31;93839.22;;;12.90;100.00
17309;BME280;8772;42.804;23.426;2022-09-29T03:46:57;93842.91;;;12.83;100.00
17309;BME280;8772;42.804;23.426;2022-09-29T03:49:25;93850.84;;;12.87;100.00
17309;BME280;8772;42.804;23.426;2022-09-29T03:51:52;93850.91;;;12.96;100.00
17309;BME280;8772;42.804;23.426;2022-09-29T03:54:19;93839.53;;;12.92;100.00
17309;BME280;8772;42.804;23.426;2022-09-29T03:56:46;93832.09;;;12.96;100.00
17309;BME280;8772;42.804;23.426;2022-09-29T03:59:14;93830.56;;;12.86;100.00
17309;BME280;8772;42.804;23.426;2022-09-29T04:01:41;93831.19;;;12.90;100.00
17309;BME280;8772;42.804;23.426;2022-09-29T04:04:09;93828.94;;;12.88;100.00
17309;BME280;8772;42.804;23.426;2022-09-29T04:06:36;93827.84;;;12.77;100.00
17309;BME280;8772;42.804;23.426;2022-09-29T04:09:03;93842.09;;;12.65;100.00
17309;BME280;8772;42.804;23.426;2022-09-29T04:11:30;93829.41;;;12.56;100.00
17309;BME280;8772;42.804;23.426;2022-09-29T04:13:57;93828.06;;;12.52;100.00
17309;BME280;8772;42.804;23.426;2022-09-29T04:16:25;93832.16;;;12.35;100.00
17309;BME280;8772;42.804;23.426;2022-09-29T04:18:52;93842.81;;;12.26;100.00
17309;BME280;8772;42.804;23.426;2022-09-29T04:21:19;93833.28;;;12.25;100.00
17309;BME280;8772;42.804;23.426;2022-09-29T04:23:46;93822.38;;;12.19;100.00
17309;BME280;8772;42.804;23.426;2022-09-29T04:26:14;93825.84;;;12.20;100.00
17309;BME280;8772;42.804;23.426;2022-09-29T04:28:41;93811.31;;;12.08;100.00
17309;BME280;8772;42.804;23.426;2022-09-29T04:31:08;93806.91;;;12.14;100.00
17309;BME280;8772;42.804;23.426;2022-09-29T04:33:36;93798.97;;;12.11;100.00
17309;BME280;8772;42.804;23.426;2022-09-29T04:36:04;93814.44;;;12.07;100.00
17309;BME280;8772;42.804;23.426;2022-09-29T04:38:31;93806.78;;;12.18;100.00
17309;BME280;8772;42.804;23.426;2022-09-29T04:40:59;93809.44;;;12.18;100.00
17309;BME280;8772;42.804;23.426;2022-09-29T04:43:25;93811.53;;;12.23;100.00
17309;BME280;8772;42.804;23.426;2022-09-29T04:45:52;93800.28;;;12.28;100.00
17309;BME280;8772;42.804;23.426;2022-09-29T04:48:26;93795.81;;;12.34;100.00
17309;BME280;8772;42.804;23.426;2022-09-29T04:50:54;93792.53;;;12.30;100.00
17309;BME280;8772;42.804;23.426;2022-09-29T04:53:21;93794.03;;;12.40;100.00
17309;BME280;8772;42.804;23.426;2022-09-29T04:55:48;93786.03;;;12.49;100.00
17309;BME280;8772;42.804;23.426;2022-09-29T04:58:15;93786.31;;;12.42;100.00
17309;BME280;8772;42.804;23.426;2022-09-29T05:00:42;93782.16;;;12.50;100.00
17309;BME280;8772;42.804;23.426;2022-09-29T05:03:09;93784.13;;;12.58;100.00
17309;BME280;8772;42.804;23.426;2022-09-29T05:05:36;93789.53;;;12.67;100.00
17309;BME280;8772;42.804;23.426;2022-09-29T05:08:04;93803.41;;;12.75;100.00
17309;BME280;8772;42.804;23.426;2022-09-29T05:10:31;93791.63;;;12.81;100.00
17309;BME280;8772;42.804;23.426;2022-09-29T05:12:58;93809.72;;;12.90;100.00
17309;BME280;8772;42.804;23.426;2022-09-29T05:15:25;93798.97;;;12.81;100.00
17309;BME280;8772;42.804;23.426;2022-09-29T05:17:52;93804.75;;;12.79;100.00
17309;BME280;8772;42.804;23.426;2022-09-29T05:20:19;93803.25;;;12.78;100.00
17309;BME280;8772;42.804;23.426;2022-09-29T05:22:46;93803.13;;;12.82;100.00
17309;BME280;8772;42.804;23.426;2022-09-29T05:25:14;93812.06;;;12.88;100.00
17309;BME280;8772;42.804;23.426;2022-09-29T05:27:41;93832.41;;;12.98;100.00
17309;BME280;8772;42.804;23.426;2022-09-29T05:30:09;93833.59;;;12.97;100.00
17309;BME280;8772;42.804;23.426;2022-09-29T05:32:36;93842.53;;;12.94;100.00
17309;BME280;8772;42.804;23.426;2022-09-29T05:35:03;93836.59;;;13.08;100.00
17309;BME280;8772;42.804;23.426;2022-09-29T05:37:30;93831.56;;;13.18;100.00
17309;BME280;8772;42.804;23.426;2022-09-29T05:39:57;93842.16;;;13.22;100.00
17309;BME280;8772;42.804;23.426;2022-09-29T05:42:26;93834.88;;;13.31;100.00
17309;BME280;8772;42.804;23.426;2022-09-29T05:44:53;93836.94;;;13.36;100.00
17309;BME280;8772;42.804;23.426;2022-09-29T05:47:19;93825.91;;;13.43;100.00
17309;BME280;8772;42.804;23.426;2022-09-29T05:49:47;93847.09;;;13.50;100.00
17309;BME280;8772;42.804;23.426;2022-09-29T05:52:14;93841.44;;;13.57;100.00
17309;BME280;8772;42.804;23.426;2022-09-29T05:54:40;93838.75;;;13.66;100.00
17309;BME280;8772;42.804;23.426;2022-09-29T05:57:07;93840.41;;;13.73;100.00
17309;BME280;8772;42.804;23.426;2022-09-29T05:59:36;93853.38;;;13.83;100.00
17309;BME280;8772;42.804;23.426;2022-09-29T06:02:03;93843.66;;;13.95;100.00
17309;BME280;8772;42.804;23.426;2022-09-29T06:04:30;93839.19;;;14.10;100.00
17309;BME280;8772;42.804;23.426;2022-09-29T06:06:57;93837.94;;;14.29;100.00
17309;BME280;8772;42.804;23.426;2022-09-29T06:09:24;93839.72;;;14.41;100.00
17309;BME280;8772;42.804;23.426;2022-09-29T06:11:51;93840.69;;;14.61;100.00
17309;BME280;8772;42.804;23.426;2022-09-29T06:14:18;93851.28;;;14.74;100.00
17309;BME280;8772;42.804;23.426;2022-09-29T06:16:46;93852.38;;;14.91;100.00
17309;BME280;8772;42.804;23.426;2022-09-29T06:19:14;93864.72;;;15.06;100.00
17309;BME280;8772;42.804;23.426;2022-09-29T06:21:40;93863.28;;;15.20;100.00
17309;BME280;8772;42.804;23.426;2022-09-29T06:24:07;93855.78;;;15.33;100.00
17309;BME280;8772;42.804;23.426;2022-09-29T06:26:34;93855.09;;;15.47;100.00
17309;BME280;8772;42.804;23.426;2022-09-29T06:29:01;93863.22;;;15.61;100.00
17309;BME280;8772;42.804;23.426;2022-09-29T06:31:29;93852.56;;;15.66;100.00
17309;BME280;8772;42.804;23.426;2022-09-29T06:33:59;93859.75;;;15.84;100.00
17309;BME280;8772;42.804;23.426;2022-09-29T06:36:29;93859.22;;;15.94;100.00
17309;BME280;8772;42.804;23.426;2022-09-29T06:39:14;93873.66;;;16.06;100.00
17309;BME280;8772;42.804;23.426;2022-09-29T06:41:42;93873.28;;;16.13;100.00
17309;BME280;8772;42.804;23.426;2022-09-29T06:44:13;93874.34;;;16.30;100.00
17309;BME280;8772;42.804;23.426;2022-09-29T06:46:39;93872.06;;;16.37;100.00
17309;BME280;8772;42.804;23.426;2022-09-29T06:49:10;93875.75;;;16.54;100.00
17309;BME280;8772;42.804;23.426;2022-09-29T06:51:38;93871.41;;;16.71;100.00
17309;BME280;8772;42.804;23.426;2022-09-29T06:54:04;93874.81;;;16.86;100.00
17309;BME280;8772;42.804;23.426;2022-09-29T06:56:31;93870.50;;;16.94;100.00
17309;BME280;8772;42.804;23.426;2022-09-29T06:58:58;93877.66;;;17.12;100.00
17309;BME280;8772;42.804;23.426;2022-09-29T07:01:25;93872.91;;;17.21;100.00
17309;BME280;8772;42.804;23.426;2022-09-29T07:03:52;93881.63;;;17.31;100.00
17309;BME280;8772;42.804;23.426;2022-09-29T07:06:20;93891.66;;;17.45;100.00
17309;BME280;8772;42.804;23.426;2022-09-29T07:08:52;93888.84;;;17.54;100.00
17309;BME280;8772;42.804;23.426;2022-09-29T07:11:19;93891.41;;;17.63;100.00
17309;BME280;8772;42.804;23.426;2022-09-29T07:13:46;93890.56;;;17.71;100.00
17309;BME280;8772;42.804;23.426;2022-09-29T07:16:13;93886.13;;;17.73;100.00
17309;BME280;8772;42.804;23.426;2022-09-29T07:18:41;93883.03;;;17.80;100.00
17309;BME280;8772;42.804;23.426;2022-09-29T07:21:10;93884.94;;;17.94;100.00
17309;BME280;8772;42.804;23.426;2022-09-29T07:23:42;93885.78;;;18.06;100.00
17309;BME280;8772;42.804;23.426;2022-09-29T07:26:09;93880.44;;;18.11;100.00
17309;BME280;8772;42.804;23.426;2022-09-29T07:28:36;93884.09;;;18.28;100.00
17309;BME280;8772;42.804;23.426;2022-09-29T07:31:05;93880.28;;;18.40;100.00
17309;BME280;8772;42.804;23.426;2022-09-29T07:33:32;93880.41;;;18.51;100.00
17309;BME280;8772;42.804;23.426;2022-09-29T07:36:00;93878.75;;;18.59;100.00
17309;BME280;8772;42.804;23.426;2022-09-29T07:38:27;93871.22;;;18.74;100.00
17309;BME280;8772;42.804;23.426;2022-09-29T07:40:58;93874.84;;;18.91;100.00
17309;BME280;8772;42.804;23.426;2022-09-29T07:43:25;93879.38;;;19.05;100.00
17309;BME280;8772;42.804;23.426;2022-09-29T07:45:52;93886.81;;;19.16;100.00
17309;BME280;8772;42.804;23.426;2022-09-29T07:48:19;93891.09;;;19.22;100.00
17309;BME280;8772;42.804;23.426;2022-09-29T07:50:46;93892.72;;;19.45;100.00
17309;BME280;8772;42.804;23.426;2022-09-29T07:53:13;93899.97;;;19.65;100.00
17309;BME280;8772;42.804;23.426;2022-09-29T07:55:40;93892.91;;;19.78;100.00
17309;BME280;8772;42.804;23.426;2022-09-29T07:58:08;93902.91;;;20.03;100.00
17309;BME280;8772;42.804;23.426;2022-09-29T08:00:35;93903.00;;;20.25;100.00
17309;BME280;8772;42.804;23.426;2022-09-29T08:03:04;93914.41;;;20.40;99.75
17309;BME280;8772;42.804;23.426;2022-09-29T08:05:33;93918.13;;;20.53;95.63
17309;BME280;8772;42.804;23.426;2022-09-29T08:08:00;93908.78;;;20.71;96.05
17309;BME280;8772;42.804;23.426;2022-09-29T08:10:29;93906.88;;;20.88;94.80
17309;BME280;8772;42.804;23.426;2022-09-29T08:12:57;93918.25;;;21.14;95.91
17309;BME280;8772;42.804;23.426;2022-09-29T08:15:25;93920.22;;;21.30;89.91
17309;BME280;8772;42.804;23.426;2022-09-29T08:17:55;93915.72;;;21.49;80.20
17309;BME280;8772;42.804;23.426;2022-09-29T08:20:22;93931.06;;;21.63;88.20
17309;BME280;8772;42.804;23.426;2022-09-29T08:22:58;93923.16;;;21.70;81.39
17309;BME280;8772;42.804;23.426;2022-09-29T08:25:39;93922.63;;;21.77;81.21
17309;BME280;8772;42.804;23.426;2022-09-29T08:28:06;93927.56;;;21.90;88.65
17309;BME280;8772;42.804;23.426;2022-09-29T08:30:37;93926.78;;;22.06;90.52
17309;BME280;8772;42.804;23.426;2022-09-29T08:33:03;93923.25;;;22.22;84.58
17309;BME280;8772;42.804;23.426;2022-09-29T08:35:33;93919.97;;;22.34;79.37
17309;BME280;8772;42.804;23.426;2022-09-29T08:38:00;93928.81;;;22.56;84.87
17309;BME280;8772;42.804;23.426;2022-09-29T08:40:27;93929.56;;;22.57;75.65
17309;BME280;8772;42.804;23.426;2022-09-29T08:42:59;93931.53;;;22.56;70.74
17309;BME280;8772;42.804;23.426;2022-09-29T08:45:30;93934.50;;;22.58;75.70
17309;BME280;8772;42.804;23.426;2022-09-29T08:48:05;93935.72;;;22.63;72.33
17309;BME280;8772;42.804;23.426;2022-09-29T08:50:41;93940.91;;;22.66;76.46
17309;BME280;8772;42.804;23.426;2022-09-29T08:53:13;93940.84;;;22.77;73.80
17309;BME280;8772;42.804;23.426;2022-09-29T08:55:46;93946.69;;;22.92;75.09
17309;BME280;8772;42.804;23.426;2022-09-29T08:58:17;93940.97;;;22.96;74.67
17309;BME280;8772;42.804;23.426;2022-09-29T09:00:54;93941.03;;;23.25;69.97
17309;BME280;8772;42.804;23.426;2022-09-29T09:03:37;93947.63;;;23.35;72.62
17309;BME280;8772;42.804;23.426;2022-09-29T09:06:13;93947.31;;;23.44;69.26
17309;BME280;8772;42.804;23.426;2022-09-29T09:11:40;93948.41;;;23.65;67.14
17309;BME280;8772;42.804;23.426;2022-09-29T09:14:22;93941.72;;;23.61;66.80
17309;BME280;8772;42.804;23.426;2022-09-29T09:17:01;93939.94;;;23.39;66.40
17309;BME280;8772;42.804;23.426;2022-09-29T09:19:46;93936.09;;;23.53;73.65
17309;BME280;8772;42.804;23.426;2022-09-29T09:22:21;93943.34;;;23.75;68.06
17309;BME280;8772;42.804;23.426;2022-09-29T09:24:55;93942.00;;;23.87;59.49
17309;BME280;8772;42.804;23.426;2022-09-29T09:27:25;93933.25;;;23.94;63.86
17309;BME280;8772;42.804;23.426;2022-09-29T09:30:01;93941.25;;;24.10;61.59
17309;BME280;8772;42.804;23.426;2022-09-29T09:32:32;93944.78;;;24.29;59.05
17309;BME280;8772;42.804;23.426;2022-09-29T09:35:17;93939.91;;;24.41;60.86
17309;BME280;8772;42.804;23.426;2022-09-29T09:37:47;93948.97;;;24.54;58.35
17309;BME280;8772;42.804;23.426;2022-09-29T09:40:18;93939.16;;;24.64;55.81
17309;BME280;8772;42.804;23.426;2022-09-29T09:42:52;93935.00;;;24.76;57.88
17309;BME280;8772;42.804;23.426;2022-09-29T09:45:28;93932.41;;;24.84;57.43
17309;BME280;8772;42.804;23.426;2022-09-29T09:48:01;93933.97;;;24.79;54.03
17309;BME280;8772;42.804;23.426;2022-09-29T09:50:39;93935.06;;;24.52;56.38
17309;BME280;8772;42.804;23.426;2022-09-29T09:53:13;93926.28;;;24.59;59.06
17309;BME280;8772;42.804;23.426;2022-09-29T09:55:41;93929.69;;;24.65;58.18
17309;BME280;8772;42.804;23.426;2022-09-29T09:58:28;93930.56;;;24.73;59.86
17309;BME280;8772;42.804;23.426;2022-09-29T10:00:59;93932.50;;;24.78;54.96
17309;BME280;8772;42.804;23.426;2022-09-29T10:03:27;93931.03;;;24.77;55.34
17309;BME280;8772;42.804;23.426;2022-09-29T10:05:57;93925.97;;;24.63;56.53
17309;BME280;8772;42.804;23.426;2022-09-29T10:08:26;93915.44;;;24.48;55.59
17309;BME280;8772;42.804;23.426;2022-09-29T10:10:55;93917.84;;;24.57;56.16
17309;BME280;8772;42.804;23.426;2022-09-29T10:13:24;93924.81;;;24.77;60.01
17309;BME280;8772;42.804;23.426;2022-09-29T10:15:55;93924.66;;;24.88;59.04
17309;BME280;8772;42.804;23.426;2022-09-29T10:18:27;93933.66;;;25.01;59.23
17309;BME280;8772;42.804;23.426;2022-09-29T10:20:57;93929.88;;;25.04;53.66
17309;BME280;8772;42.804;23.426;2022-09-29T10:23:26;93914.81;;;24.79;54.20
17309;BME280;8772;42.804;23.426;2022-09-29T10:25:57;93922.44;;;24.86;58.08
17309;BME280;8772;42.804;23.426;2022-09-29T10:28:28;93909.13;;;24.77;53.65
17309;BME280;8772;42.804;23.426;2022-09-29T10:30:56;93927.16;;;25.04;58.07
17309;BME280;8772;42.804;23.426;2022-09-29T10:33:23;93912.13;;;25.29;52.61
17309;BME280;8772;42.804;23.426;2022-09-29T10:36:06;93913.22;;;25.52;48.76
17309;BME280;8772;42.804;23.426;2022-09-29T10:38:34;93908.09;;;25.61;51.23
17309;BME280;8772;42.804;23.426;2022-09-29T10:41:04;93911.66;;;25.56;55.10
17309;BME280;8772;42.804;23.426;2022-09-29T10:43:35;93909.78;;;25.77;53.75
17309;BME280;8772;42.804;23.426;2022-09-29T10:46:04;93917.28;;;25.77;53.91
17309;BME280;8772;42.804;23.426;2022-09-29T10:48:31;93916.63;;;25.84;50.91
17309;BME280;8772;42.804;23.426;2022-09-29T10:51:01;93909.25;;;25.79;48.42
17309;BME280;8772;42.804;23.426;2022-09-29T10:53:33;93912.19;;;25.68;48.82
17309;BME280;8772;42.804;23.426;2022-09-29T10:56:08;93901.22;;;25.55;48.10
17309;BME280;8772;42.804;23.426;2022-09-29T10:58:41;93900.25;;;25.52;49.64
17309;BME280;8772;42.804;23.426;2022-09-29T11:01:12;93895.94;;;25.57;49.98
17309;BME280;8772;42.804;23.426;2022-09-29T11:03:45;93901.13;;;25.60;52.25
17309;BME280;8772;42.804;23.426;2022-09-29T11:06:14;93896.69;;;25.57;51.09
17309;BME280;8772;42.804;23.426;2022-09-29T11:08:59;93885.19;;;25.46;49.49
17309;BME280;8772;42.804;23.426;2022-09-29T11:11:28;93889.19;;;25.45;48.27
17309;BME280;8772;42.804;23.426;2022-09-29T11:13:56;93895.50;;;25.40;51.03
17309;BME280;8772;42.804;23.426;2022-09-29T11:16:29;93894.84;;;25.34;49.65
17309;BME280;8772;42.804;23.426;2022-09-29T11:19:01;93895.91;;;25.12;50.20
17309;BME280;8772;42.804;23.426;2022-09-29T11:21:52;93895.53;;;24.90;51.53
17309;BME280;8772;42.804;23.426;2022-09-29T11:24:38;93894.13;;;24.65;53.31
17309;BME280;8772;42.804;23.426;2022-09-29T11:27:13;93885.03;;;24.57;52.19
17309;BME280;8772;42.804;23.426;2022-09-29T11:29:49;93886.41;;;24.45;54.70
17309;BME280;8772;42.804;23.426;2022-09-29T11:32:28;93877.50;;;24.63;53.29
17309;BME280;8772;42.804;23.426;2022-09-29T11:35:11;93881.00;;;24.95;56.44
17309;BME280;8772;42.804;23.426;2022-09-29T11:37:58;93878.50;;;24.97;50.68
17309;BME280;8772;42.804;23.426;2022-09-29T11:40:37;93882.03;;;25.10;52.74
17309;BME280;8772;42.804;23.426;2022-09-29T11:43:21;93884.75;;;25.29;53.60
17309;BME280;8772;42.804;23.426;2022-09-29T11:45:57;93876.75;;;25.44;53.69
17309;BME280;8772;42.804;23.426;2022-09-29T11:48:52;93886.81;;;25.23;46.67
17309;BME280;8772;42.804;23.426;2022-09-29T11:51:27;93873.81;;;25.42;48.91
17309;BME280;8772;42.804;23.426;2022-09-29T11:54:05;93875.50;;;25.58;49.26
17309;BME280;8772;42.804;23.426;2022-09-29T11:56:46;93883.59;;;25.37;50.96
17309;BME280;8772;42.804;23.426;2022-09-29T11:59:41;93878.88;;;25.38;50.05
17309;BME280;8772;42.804;23.426;2022-09-29T12:02:39;93883.72;;;25.58;52.06
17309;BME280;8772;42.804;23.426;2022-09-29T12:05:16;93888.81;;;25.67;51.68
17309;BME280;8772;42.804;23.426;2022-09-29T12:07:53;93877.00;;;25.72;47.13
17309;BME280;8772;42.804;23.426;2022-09-29T12:10:39;93876.34;;;25.40;49.13
17309;BME280;8772;42.804;23.426;2022-09-29T12:13:17;93883.91;;;25.47;47.92
17309;BME280;8772;42.804;23.426;2022-09-29T12:15:51;93875.28;;;25.43;48.10
17309;BME280;8772;42.804;23.426;2022-09-29T12:18:23;93879.09;;;25.53;48.48
17309;BME280;8772;42.804;23.426;2022-09-29T12:20:53;93876.97;;;25.46;50.56
17309;BME280;8772;42.804;23.426;2022-09-29T12:23:23;93871.50;;;25.59;50.37
17309;BME280;8772;42.804;23.426;2022-09-29T12:26:01;93874.16;;;25.64;51.24
17309;BME280;8772;42.804;23.426;2022-09-29T12:28:36;93863.66;;;25.68;50.46
17309;BME280;8772;42.804;23.426;2022-09-29T12:31:11;93865.63;;;25.81;49.28
17309;BME280;8772;42.804;23.426;2022-09-29T12:33:42;93865.47;;;25.92;50.33
17309;BME280;8772;42.804;23.426;2022-09-29T12:36:28;93866.72;;;26.04;50.83
17309;BME280;8772;42.804;23.426;2022-09-29T12:39:34;93868.31;;;25.99;49.88
17309;BME280;8772;42.804;23.426;2022-09-29T12:42:16;93869.16;;;26.07;50.87
17309;BME280;8772;42.804;23.426;2022-09-29T12:44:51;93874.53;;;26.13;49.65
17309;BME280;8772;42.804;23.426;2022-09-29T12:47:27;93878.31;;;25.97;49.71
17309;BME280;8772;42.804;23.426;2022-09-29T12:50:03;93869.56;;;25.98;48.23
17309;BME280;8772;42.804;23.426;2022-09-29T12:52:36;93874.75;;;26.02;48.94
17309;BME280;8772;42.804;23.426;2022-09-29T12:55:16;93881.69;;;26.03;47.38
17309;BME280;8772;42.804;23.426;2022-09-29T12:57:45;93873.25;;;26.01;46.96
17309;BME280;8772;42.804;23.426;2022-09-29T13:00:16;93874.75;;;25.89;47.91
17309;BME280;8772;42.804;23.426;2022-09-29T13:03:15;93873.44;;;25.77;46.75
17309;BME280;8772;42.804;23.426;2022-09-29T13:06:22;93870.25;;;25.73;48.88
17309;BME280;8772;42.804;23.426;2022-09-29T13:09:05;93874.91;;;25.65;47.75
17309;BME280;8772;42.804;23.426;2022-09-29T13:14:49;93878.59;;;25.23;48.67
17309;BME280;8772;42.804;23.426;2022-09-29T13:17:37;93879.28;;;25.10;50.12
17309;BME280;8772;42.804;23.426;2022-09-29T13:20:28;93872.94;;;25.02;50.43
17309;BME280;8772;42.804;23.426;2022-09-29T13:23:11;93871.13;;;24.92;50.45
17309;BME280;8772;42.804;23.426;2022-09-29T13:25:51;93872.03;;;24.82;51.49
17309;BME280;8772;42.804;23.426;2022-09-29T13:28:26;93870.84;;;24.77;50.90